createdAt,value
2019-05-09T00:01:48.586Z,98688.44
2019-05-09T00:04:53.250Z,98689.39
2019-05-09T00:07:57.957Z,98690.37
2019-05-09T00:11:03.837Z,98679.78
2019-05-09T00:14:07.310Z,98685.08
2019-05-09T00:17:10.930Z,98686.41
2019-05-09T00:20:33.269Z,98682.44
2019-05-09T00:23:38.014Z,98680.27
2019-05-09T00:26:41.505Z,98682.09
2019-05-09T00:29:48.730Z,98675.48
2019-05-09T00:32:53.451Z,98683.08
2019-05-09T00:35:59.157Z,98682.09
2019-05-09T00:39:04.155Z,98680.77
2019-05-09T00:42:07.811Z,98688.71
2019-05-09T00:45:18.575Z,98688.71
2019-05-09T00:48:25.487Z,98694.00
2019-05-09T00:51:28.961Z,98694.14
2019-05-09T00:54:36.755Z,98699.09
2019-05-09T00:57:41.262Z,98703.88
2019-05-09T01:00:47.007Z,98701.23
2019-05-09T01:03:50.535Z,98702.92
2019-05-09T01:06:54.206Z,98694.98
2019-05-09T01:09:57.742Z,98699.91
2019-05-09T01:13:03.623Z,98703.73
2019-05-09T01:16:07.401Z,98700.89
2019-05-09T01:19:10.897Z,98696.92
2019-05-09T01:22:14.441Z,98707.84
2019-05-09T01:25:17.901Z,98701.23
2019-05-09T01:28:23.212Z,98697.91
2019-05-09T01:31:28.797Z,98707.17
2019-05-09T01:34:33.274Z,98699.23
2019-05-09T01:37:37.833Z,98699.56
2019-05-09T01:40:44.423Z,98707.50
2019-05-09T01:43:49.953Z,98705.00
2019-05-09T01:46:54.135Z,98712.80
2019-05-09T01:49:57.793Z,98719.08
2019-05-09T01:53:01.274Z,98716.42
2019-05-09T01:56:04.790Z,98710.42
2019-05-09T01:59:08.283Z,98719.08
2019-05-09T02:02:14.199Z,98720.03
2019-05-09T02:05:18.980Z,98720.03
2019-05-09T02:08:23.673Z,98717.38
2019-05-09T02:11:39.300Z,98714.26
2019-05-09T02:14:43.729Z,98716.05
2019-05-09T02:18:01.646Z,98726.30
2019-05-09T02:21:03.881Z,98724.98
2019-05-09T02:24:07.078Z,98722.81
2019-05-09T02:27:10.532Z,98715.38
2019-05-09T02:30:15.197Z,98723.66
2019-05-09T02:33:19.138Z,98721.02
2019-05-09T02:36:22.680Z,98723.66
2019-05-09T02:39:29.291Z,98726.30
2019-05-09T02:42:31.493Z,98732.58
2019-05-09T02:45:47.450Z,98724.64
2019-05-09T02:48:49.573Z,98721.99
2019-05-09T02:51:53.299Z,98723.66
2019-05-09T02:54:58.480Z,98724.64
2019-05-09T02:58:08.233Z,98724.98
2019-05-09T03:01:19.051Z,98712.73
2019-05-09T03:04:22.631Z,98718.02
2019-05-09T03:07:44.891Z,98712.36
2019-05-09T03:10:49.118Z,98716.70
2019-05-09T03:13:52.999Z,98718.50
2019-05-09T03:16:58.754Z,98719.95
2019-05-09T03:20:01.884Z,98724.27
2019-05-09T03:23:09.126Z,98721.79
2019-05-09T03:26:14.489Z,98726.57
2019-05-09T03:29:25.446Z,98732.20
2019-05-09T03:32:31.013Z,98730.88
2019-05-09T03:35:34.512Z,98725.76
2019-05-09T03:38:38.001Z,98720.94
2019-05-09T03:41:41.520Z,98724.91
2019-05-09T03:44:47.526Z,98718.64
2019-05-09T03:47:54.421Z,98715.98
2019-05-09T03:50:58.977Z,98730.88
2019-05-09T03:54:02.475Z,98727.42
2019-05-09T03:57:14.516Z,98736.17
2019-05-09T04:00:18.167Z,98743.30
2019-05-09T04:03:23.624Z,98742.45
2019-05-09T04:06:29.257Z,98748.59
2019-05-09T04:09:34.740Z,98738.14
2019-05-09T04:12:52.891Z,98735.84
2019-05-09T04:15:43.569Z,98733.70
2019-05-09T04:18:47.985Z,98739.33
2019-05-09T04:21:51.602Z,98731.39
2019-05-09T04:24:55.093Z,98743.43
2019-05-09T04:27:59.628Z,98738.98
2019-05-09T04:31:03.123Z,98736.34
2019-05-09T04:34:09.669Z,98734.17
2019-05-09T04:37:12.999Z,98738.48
2019-05-09T04:40:17.783Z,98724.57
2019-05-09T04:43:34.290Z,98723.59
2019-05-09T04:46:27.719Z,98731.05
2019-05-09T04:49:39.176Z,98728.87
2019-05-09T04:52:39.827Z,98731.19
2019-05-09T04:55:43.242Z,98738.14
2019-05-09T04:58:48.183Z,98736.48
2019-05-09T05:02:09.268Z,98740.45
2019-05-09T05:05:12.777Z,98744.41
2019-05-09T05:08:18.134Z,98743.09
2019-05-09T05:11:22.819Z,98745.73
2019-05-09T05:14:28.134Z,98737.80
2019-05-09T05:17:31.671Z,98739.12
2019-05-09T05:20:35.185Z,98748.25
2019-05-09T05:23:44.713Z,98748.72
2019-05-09T05:26:49.359Z,98747.88
2019-05-09T05:29:52.859Z,98755.00
2019-05-09T05:33:04.291Z,98755.95
2019-05-09T05:36:09.484Z,98760.63
2019-05-09T05:39:12.988Z,98771.55
2019-05-09T05:42:22.001Z,98771.69
2019-05-09T05:45:24.737Z,98769.41
2019-05-09T05:48:30.095Z,98775.86
2019-05-09T05:51:49.089Z,98776.84
2019-05-09T05:54:52.639Z,98781.80
2019-05-09T05:57:57.907Z,98785.77
2019-05-09T06:01:04.596Z,98784.45
2019-05-09T06:04:07.720Z,98781.45
2019-05-09T06:07:11.203Z,98778.30
2019-05-09T06:10:14.811Z,98779.15
2019-05-09T06:13:19.439Z,98785.77
2019-05-09T06:16:23.121Z,98777.96
2019-05-09T06:19:28.675Z,98779.28
2019-05-09T06:22:32.085Z,98785.90
2019-05-09T06:25:38.919Z,98781.45
2019-05-09T06:28:42.783Z,98778.30
2019-05-09T06:31:48.452Z,98779.63
2019-05-09T06:34:52.483Z,98774.20
2019-05-09T06:37:58.441Z,98781.87
2019-05-09T06:41:01.308Z,98772.27
2019-05-09T06:44:17.008Z,98783.53
2019-05-09T06:47:27.638Z,98783.06
2019-05-09T06:50:30.449Z,98779.94
2019-05-09T06:53:38.060Z,98771.36
2019-05-09T06:56:42.338Z,98763.79
2019-05-09T06:59:45.843Z,98766.78
2019-05-09T07:02:57.451Z,98770.61
2019-05-09T07:06:08.457Z,98764.00
2019-05-09T07:09:17.458Z,98760.23
2019-05-09T07:12:21.147Z,98766.51
2019-05-09T07:15:24.660Z,98769.50
2019-05-09T07:18:28.100Z,98769.36
2019-05-09T07:21:50.625Z,98762.95
2019-05-09T07:25:18.599Z,98762.95
2019-05-09T07:28:22.286Z,98762.81
2019-05-09T07:31:34.789Z,98756.80
2019-05-09T07:34:42.209Z,98762.67
2019-05-09T07:37:48.572Z,98764.34
2019-05-09T07:40:52.326Z,98765.05
2019-05-09T07:43:58.107Z,98768.38
2019-05-09T07:47:07.286Z,98770.07
2019-05-09T07:50:10.549Z,98766.78
2019-05-09T07:53:14.075Z,98765.45
2019-05-09T07:56:18.801Z,98769.42
2019-05-09T07:59:22.782Z,98765.83
2019-05-09T08:02:28.191Z,98765.83
2019-05-09T08:05:31.737Z,98770.48
2019-05-09T08:08:35.239Z,98773.70
2019-05-09T08:11:38.767Z,98771.88
2019-05-09T08:14:42.241Z,98776.21
2019-05-09T08:17:45.805Z,98767.28
2019-05-09T08:20:53.374Z,98769.94
2019-05-09T08:23:57.829Z,98770.67
2019-05-09T08:27:02.898Z,98772.92
2019-05-09T08:30:08.545Z,98778.62
2019-05-09T08:33:11.961Z,98780.28
2019-05-09T08:36:18.042Z,98784.73
2019-05-09T08:39:20.983Z,98789.21
2019-05-09T08:42:24.377Z,98799.80
2019-05-09T08:45:31.041Z,98799.80
2019-05-09T08:48:33.235Z,98797.97
2019-05-09T08:52:09.196Z,98794.51
2019-05-09T08:54:58.573Z,98800.48
2019-05-09T08:58:02.144Z,98801.19
2019-05-09T09:01:08.736Z,98804.80
2019-05-09T09:04:11.006Z,98805.37
2019-05-09T09:07:15.570Z,98803.56
2019-05-09T09:10:19.024Z,98805.23
2019-05-09T09:13:22.527Z,98803.91
2019-05-09T09:16:28.425Z,98794.30
2019-05-09T09:19:31.857Z,98797.16
2019-05-09T09:22:37.479Z,98796.30
2019-05-09T09:25:40.619Z,98799.66
2019-05-09T09:28:44.117Z,98791.72
2019-05-09T09:31:48.293Z,98787.09
2019-05-09T09:34:51.938Z,98783.50
2019-05-09T09:37:57.901Z,98793.95
2019-05-09T09:41:00.850Z,98784.52
2019-05-09T09:44:04.282Z,98781.96
2019-05-09T09:47:07.921Z,98780.55
2019-05-09T09:50:11.540Z,98788.35
2019-05-09T09:53:15.122Z,98786.55
2019-05-09T09:56:22.413Z,98791.57
2019-05-09T09:59:33.768Z,98789.63
2019-05-09T10:02:38.054Z,98801.55
2019-05-09T10:05:41.489Z,98798.19
2019-05-09T10:08:44.995Z,98799.52
2019-05-09T10:11:49.562Z,98806.14
2019-05-09T10:14:59.446Z,98797.20
2019-05-09T10:18:18.077Z,98794.22
2019-05-09T10:21:24.148Z,98791.57
2019-05-09T10:24:28.167Z,98787.26
2019-05-09T10:27:32.647Z,98785.94
2019-05-09T10:30:38.239Z,98785.28
2019-05-09T10:33:43.315Z,98786.00
2019-05-09T10:36:47.608Z,98774.42
2019-05-09T10:39:51.136Z,98778.11
2019-05-09T10:42:59.236Z,98772.81
2019-05-09T10:46:14.996Z,98767.72
2019-05-09T10:49:16.163Z,98762.62
2019-05-09T10:52:19.682Z,98763.12
2019-05-09T10:55:24.192Z,98758.78
2019-05-09T10:58:28.068Z,98755.86
2019-05-09T11:01:31.612Z,98749.03
2019-05-09T11:04:37.553Z,98747.71
2019-05-09T11:07:40.653Z,98752.02
2019-05-09T11:10:47.370Z,98754.33
2019-05-09T11:13:50.523Z,98753.34
2019-05-09T11:17:07.978Z,98745.40
2019-05-09T11:20:01.506Z,98748.42
2019-05-09T11:23:08.068Z,98748.89
2019-05-09T11:26:11.088Z,98742.61
2019-05-09T11:29:18.909Z,98748.61
2019-05-09T11:32:22.384Z,98748.14
2019-05-09T11:35:25.952Z,98745.13
2019-05-09T11:38:36.417Z,98743.17
2019-05-09T11:41:34.742Z,98737.23
2019-05-09T11:44:40.306Z,98743.52
2019-05-09T11:47:46.371Z,98744.50
2019-05-09T11:50:50.144Z,98739.20
2019-05-09T11:53:54.686Z,98737.03
2019-05-09T11:56:59.193Z,98733.56
2019-05-09T12:00:02.818Z,98732.72
2019-05-09T12:03:09.138Z,98749.46
2019-05-09T12:06:15.874Z,98740.53
2019-05-09T12:09:17.844Z,98745.83
2019-05-09T12:12:21.420Z,98738.87
2019-05-09T12:15:28.822Z,98750.42
2019-05-09T12:18:31.277Z,98739.82
2019-05-09T12:21:39.638Z,98743.94
2019-05-09T12:24:40.270Z,98746.30
2019-05-09T12:27:43.955Z,98748.48
2019-05-09T12:30:48.982Z,98747.16
2019-05-09T12:33:59.237Z,98751.97
2019-05-09T12:37:11.356Z,98749.16
2019-05-09T12:40:14.982Z,98743.52
2019-05-09T12:43:18.704Z,98730.61
2019-05-09T12:46:22.272Z,98738.55
2019-05-09T12:49:28.181Z,98731.45
2019-05-09T12:52:31.113Z,98737.59
2019-05-09T12:55:34.637Z,98733.48
2019-05-09T12:58:38.129Z,98728.66
2019-05-09T13:01:41.729Z,98732.36
2019-05-09T13:04:47.485Z,98734.02
2019-05-09T13:07:50.660Z,98731.73
2019-05-09T13:10:55.203Z,98734.64
2019-05-09T13:14:00.746Z,98729.48
2019-05-09T13:17:14.702Z,98728.48
2019-05-09T13:20:18.943Z,98714.95
2019-05-09T13:23:22.547Z,98720.26
2019-05-09T13:26:28.701Z,98724.57
2019-05-09T13:29:32.351Z,98720.96
2019-05-09T13:32:37.616Z,98723.61
2019-05-09T13:35:41.221Z,98723.61
2019-05-09T13:38:57.912Z,98720.96
2019-05-09T13:41:51.951Z,98724.42
2019-05-09T13:44:55.433Z,98719.64
2019-05-09T13:47:59.936Z,98724.66
2019-05-09T13:51:03.925Z,98717.18
2019-05-09T13:54:07.546Z,98716.70
2019-05-09T13:57:11.065Z,98721.02
2019-05-09T14:00:14.572Z,98710.75
2019-05-09T14:03:18.239Z,98709.42
2019-05-09T14:06:21.873Z,98711.79
2019-05-09T14:09:29.238Z,98713.45
2019-05-09T14:12:31.864Z,98715.48
2019-05-09T14:15:35.345Z,98711.98
2019-05-09T14:18:39.852Z,98701.09
2019-05-09T14:21:43.442Z,98720.25
2019-05-09T14:24:48.420Z,98723.56
2019-05-09T14:27:58.882Z,98715.33
2019-05-09T14:31:02.494Z,98714.00
2019-05-09T14:34:08.560Z,98712.67
2019-05-09T14:37:11.326Z,98716.66
2019-05-09T14:40:14.831Z,98716.66
2019-05-09T14:43:21.709Z,98713.16
2019-05-09T14:46:25.298Z,98713.66
2019-05-09T14:49:40.488Z,98705.20
2019-05-09T14:52:38.179Z,98714.00
2019-05-09T14:55:43.331Z,98712.15
2019-05-09T14:58:45.648Z,98710.68
2019-05-09T15:01:51.192Z,98708.41
2019-05-09T15:04:54.676Z,98709.73
2019-05-09T15:07:59.344Z,98706.61
2019-05-09T15:11:10.023Z,98708.97
2019-05-09T15:14:13.737Z,98704.81
2019-05-09T15:17:18.684Z,98705.95
2019-05-09T15:20:23.277Z,98700.66
2019-05-09T15:23:29.230Z,98701.50
2019-05-09T15:26:32.113Z,98702.48
2019-05-09T15:29:35.578Z,98703.49
2019-05-09T15:32:39.089Z,98708.17
2019-05-09T15:35:42.580Z,98702.87
2019-05-09T15:38:48.451Z,98697.28
2019-05-09T15:41:51.448Z,98695.30
2019-05-09T15:44:58.773Z,98693.48
2019-05-09T15:48:02.138Z,98694.67
2019-05-09T15:51:07.582Z,98689.70
2019-05-09T15:54:12.910Z,98692.20
2019-05-09T15:57:17.735Z,98684.62
2019-05-09T16:00:21.256Z,98680.97
2019-05-09T16:03:27.782Z,98674.83
2019-05-09T16:06:33.047Z,98679.50
2019-05-09T16:09:37.830Z,98677.84
2019-05-09T16:12:42.631Z,98682.16
2019-05-09T16:15:48.628Z,98678.80
2019-05-09T16:18:52.285Z,98683.30
2019-05-09T16:21:55.776Z,98683.77
2019-05-09T16:24:59.291Z,98683.44
2019-05-09T16:28:02.807Z,98684.91
2019-05-09T16:31:06.647Z,98680.09
2019-05-09T16:34:10.205Z,98683.92
2019-05-09T16:37:13.714Z,98685.24
2019-05-09T16:40:17.217Z,98678.42
2019-05-09T16:43:21.915Z,98682.73
2019-05-09T16:46:25.430Z,98679.75
2019-05-09T16:49:29.478Z,98686.38
2019-05-09T16:52:33.062Z,98679.38
2019-05-09T16:55:38.194Z,98680.23
2019-05-09T16:58:41.692Z,98687.34
2019-05-09T17:01:47.582Z,98678.72
2019-05-09T17:04:51.398Z,98675.22
2019-05-09T17:07:54.855Z,98681.84
2019-05-09T17:10:58.843Z,98679.34
2019-05-09T17:14:02.643Z,98683.83
2019-05-09T17:17:08.386Z,98688.14
2019-05-09T17:20:13.288Z,98682.64
2019-05-09T17:23:19.463Z,98689.28
2019-05-09T17:26:23.042Z,98691.92
2019-05-09T17:29:28.029Z,98693.25
2019-05-09T17:32:31.666Z,98699.03
2019-05-09T17:35:35.186Z,98701.20
2019-05-09T17:38:39.744Z,98696.24
2019-05-09T17:41:43.213Z,98703.72
2019-05-09T17:44:48.864Z,98703.20
2019-05-09T17:47:51.835Z,98711.16
2019-05-09T17:50:57.711Z,98709.83
2019-05-09T17:54:00.717Z,98709.83
2019-05-09T17:57:04.180Z,98716.47
2019-05-09T18:00:09.561Z,98719.63
2019-05-09T18:03:13.184Z,98725.41
2019-05-09T18:06:19.119Z,98722.42
2019-05-09T18:09:21.906Z,98726.03
2019-05-09T18:12:27.727Z,98724.70
2019-05-09T18:15:31.362Z,98728.86
2019-05-09T18:18:34.831Z,98726.69
2019-05-09T18:21:49.938Z,98728.68
2019-05-09T18:24:43.807Z,98729.53
2019-05-09T18:27:48.851Z,98729.53
2019-05-09T18:30:53.549Z,98734.50
2019-05-09T18:34:02.370Z,98732.33
2019-05-09T18:37:08.045Z,98729.67
2019-05-09T18:40:11.358Z,98739.28
2019-05-09T18:43:14.934Z,98740.28
2019-05-09T18:46:21.498Z,98744.25
2019-05-09T18:49:23.783Z,98747.89
2019-05-09T18:52:27.269Z,98749.56
2019-05-09T18:55:30.774Z,98751.54
2019-05-09T18:58:36.095Z,98753.34
2019-05-09T19:01:39.413Z,98754.52
2019-05-09T19:04:42.923Z,98755.52
2019-05-09T19:07:46.421Z,98756.84
2019-05-09T19:10:52.211Z,98758.78
2019-05-09T19:13:56.151Z,98762.48
2019-05-09T19:17:29.997Z,98755.00
2019-05-09T19:20:50.195Z,98766.13
2019-05-09T19:23:55.737Z,98769.39
2019-05-09T19:27:00.273Z,98770.58
2019-05-09T19:30:04.073Z,98778.53
2019-05-09T19:33:07.669Z,98780.84
2019-05-09T19:36:11.307Z,98782.03
2019-05-09T19:39:15.902Z,98788.66
2019-05-09T19:42:19.419Z,98794.44
2019-05-09T19:45:22.991Z,98797.94
2019-05-09T19:48:27.425Z,98797.94
2019-05-09T19:51:30.964Z,98794.58
2019-05-09T19:54:34.486Z,98792.63
2019-05-09T19:57:37.943Z,98794.91
2019-05-09T20:00:41.445Z,98792.27
2019-05-09T20:03:44.932Z,98784.82
2019-05-09T20:06:48.434Z,98786.34
2019-05-09T20:10:00.417Z,98790.45
2019-05-09T20:13:13.685Z,98786.14
2019-05-09T20:16:17.215Z,98791.92
2019-05-09T20:19:22.753Z,98789.75
2019-05-09T20:22:26.233Z,98791.92
2019-05-09T20:25:29.717Z,98787.33
2019-05-09T20:28:33.246Z,98790.60
2019-05-09T20:31:37.761Z,98793.25
2019-05-09T20:34:41.264Z,98805.52
2019-05-09T20:37:45.970Z,98814.94
2019-05-09T20:40:49.658Z,98811.67
2019-05-09T20:43:53.546Z,98812.15
2019-05-09T20:46:57.286Z,98814.61
2019-05-09T20:50:01.284Z,98812.94
2019-05-09T20:53:09.444Z,98817.73
2019-05-09T20:56:11.263Z,98816.99
2019-05-09T20:59:14.946Z,98821.80
2019-05-09T21:02:18.737Z,98823.69
2019-05-09T21:05:22.383Z,98820.70
2019-05-09T21:08:26.079Z,98820.13
2019-05-09T21:11:29.784Z,98824.59
2019-05-09T21:14:33.389Z,98829.55
2019-05-09T21:17:43.142Z,98830.14
2019-05-09T21:20:46.745Z,98838.09
2019-05-09T21:23:50.551Z,98834.77
2019-05-09T21:26:54.157Z,98839.02
2019-05-09T21:29:58.824Z,98846.83
2019-05-09T21:33:02.454Z,98846.48
2019-05-09T21:36:05.897Z,98851.28
2019-05-09T21:39:09.507Z,98854.92
2019-05-09T21:42:13.022Z,98866.14
2019-05-09T21:45:16.523Z,98862.16
2019-05-09T21:48:20.039Z,98867.47
2019-05-09T21:51:23.506Z,98872.42
2019-05-09T21:54:32.952Z,98868.11
2019-05-09T21:57:37.494Z,98873.41
2019-05-09T22:00:40.978Z,98879.70
2019-05-09T22:03:44.482Z,98874.54
2019-05-09T22:06:49.896Z,98877.05
2019-05-09T22:09:53.311Z,98878.00
2019-05-09T22:12:56.846Z,98882.63
2019-05-09T22:16:00.326Z,98886.94
2019-05-09T22:19:03.841Z,98884.42
2019-05-09T22:22:07.334Z,98884.91
2019-05-09T22:25:10.865Z,98896.02
2019-05-09T22:28:14.337Z,98892.17
2019-05-09T22:31:19.495Z,98896.29
2019-05-09T22:34:22.871Z,98892.80
2019-05-09T22:37:26.470Z,98903.39
2019-05-09T22:40:34.927Z,98903.39
2019-05-09T22:43:39.403Z,98903.90
2019-05-09T22:46:43.951Z,98904.03
2019-05-09T22:49:47.435Z,98900.88
2019-05-09T22:52:50.943Z,98906.31
2019-05-09T22:55:55.470Z,98909.34
2019-05-09T22:58:58.975Z,98913.92
2019-05-09T23:02:06.793Z,98915.25
2019-05-09T23:05:07.590Z,98920.55
2019-05-09T23:08:11.112Z,98918.17
2019-05-09T23:11:15.628Z,98919.88
2019-05-09T23:14:19.127Z,98928.16
2019-05-09T23:17:23.657Z,98925.17
2019-05-09T23:20:48.312Z,98927.82
2019-05-09T23:23:55.061Z,98921.67
2019-05-09T23:26:58.492Z,98931.08
2019-05-09T23:30:01.935Z,98929.76
2019-05-09T23:33:05.530Z,98930.74
2019-05-09T23:36:09.032Z,98938.69
2019-05-09T23:39:34.925Z,98937.37
2019-05-09T23:42:38.346Z,98941.81
2019-05-09T23:45:41.853Z,98941.61
2019-05-09T23:48:45.377Z,98941.61
2019-05-09T23:51:49.598Z,98948.44
2019-05-09T23:55:12.602Z,98949.30
2019-05-09T23:58:34.071Z,98943.89
